Latest Coastal Weather Observations for Cape Otway

IDT60701

Issued at 7:42 pm EST Sunday 31 July 2016 (issued every 10 minutes, with the page automatically refreshed every 10 minutes)

About coastal observations | Map of coastal stations | Coastal observations for TAS | Marine services | Other Formats
Station Details ID: 090015 Name: CAPE OTWAY LIGHTHOUSE Lat: -38.86 Lon: 143.51 Height: 82.0 m
Data from the previous 72 hours. | See also: Recent months at Cape Otway
Date/Time
EST
Temp
°C
Wind Pressure Rain since
9am
mm
Weather Cloud Vis
km
Sea
Height
m
Swell
Dir  Spd
kts
Gust
kts
hPa Trend Height
m
Period
s
Dir
31/07:30pm 9.4 NNE 9 10 1013.2 - 0.0 - - - - - - -
31/07:00pm 9.4 NNE 7 8 1013.4 - 0.0 - - - - - - -
31/06:30pm 8.9 NNE 5 6 1013.2 - 0.0 - - - - - - -
31/06:00pm 9.5 NNE 5 6 1013.2 - 0.0 - - - - - - -
31/05:30pm 10.6 N 5 6 1013.2 - 0.0 - - - - - - -
31/05:00pm 12.5 NNW 6 8 1013.4 - 0.0 - - - - - - -
31/04:30pm 13.3 NNW 8 12 1013.3 - 0.0 - - - - - - -
31/04:00pm 14.0 NNW 6 10 1013.3 - 0.0 - - - - - - -
31/03:30pm 12.9 WSW 3 4 1013.4 - 0.0 - - - - - - -
31/03:00pm 12.8 W 6 7 1013.6 - 0.0 - - - - - - -
31/02:30pm 12.9 W 7 9 1013.6 - 0.0 - - - - - - -
31/02:00pm 13.7 W 7 10 1013.8 - 0.0 - - - - - - -
31/01:30pm 13.2 W 8 10 1013.9 - 0.0 - - - - - - -
31/01:00pm 13.1 W 7 9 1014.3 - 0.0 - - - - - - -
31/12:30pm 13.9 WNW 6 9 1014.8 - 0.0 - - - - - - -
31/12:00pm 13.2 W 8 11 1015.4 - 0.0 - - - - - - -
31/11:30am 13.4 W 8 11 1015.3 - 0.0 - - - - - - -
31/11:00am 12.9 W 9 13 1015.3 - 0.0 - - - - - - -
31/10:30am 12.7 WSW 11 17 1015.3 - 0.0 - - - - - - -
31/10:00am 12.5 W 13 19 1015.2 - 0.0 - - - - - - -
31/09:30am 12.4 WSW 14 21 1014.9 - 0.0 - - - - - - -
31/09:00am 12.2 WSW 15 22 1015.1 - 1.0 - - - - - - -
31/08:30am 12.2 WSW 16 24 1014.6 - 1.0 - - - - - - -
31/08:00am 12.1 WSW 17 27 1014.2 - 1.0 - - - - - - -
31/07:59am 12.0 WSW 17 27 1014.2 - 1.0 - - - - - - -
31/07:30am 12.5 W 19 26 1013.7 - 1.0 - - - - - - -
31/07:00am 12.4 W 18 25 1013.4 - 1.0 - - - - - - -
31/06:30am 12.3 W 16 24 1013.0 - 1.0 - - - - - - -
31/06:00am 12.7 W 17 26 1012.6 - 1.0 - - - - - - -
31/05:30am 12.5 W 17 23 1012.2 - 1.0 - - - - - - -
31/05:00am 12.4 W 18 26 1012.0 - 1.0 - - - - - - -
31/04:30am 12.6 W 18 25 1011.8 - 1.0 - - - - - - -
31/04:00am 12.5 W 18 24 1011.5 - 1.0 - - - - - - -
31/03:30am 12.5 W 20 27 1011.5 - 1.0 - - - - - - -
31/03:00am 12.1 W 19 26 1011.6 - 1.0 - - - - - - -
31/02:30am 12.1 WNW 16 28 1011.3 - 1.0 - - - - - - -
31/02:26am 12.1 WNW 16 28 1011.2 - 1.0 - - - - - - -
31/02:00am 12.0 NW 18 25 1011.1 - 1.0 - - - - - - -
31/01:31am 12.2 WNW 19 29 1011.0 - 1.0 - - - - - - -
31/01:30am 12.2 WNW 18 27 1011.0 - 1.0 - - - - - - -
31/01:00am 12.1 NW 16 27 1010.8 - 1.0 - - - - - - -
31/12:30am 12.1 NW 17 29 1010.6 - 0.8 - - - - - - -
31/12:00am 11.8 NNW 17 27 1010.4 - 0.8 - - - - - - -
 
Date/Time
EST
Temp
°C
Wind Pressure Rain since
9am
mm
Weather Cloud Vis
km
Sea
Height
m
Swell
Dir  Spd
kts
Gust
kts
hPa Trend Height
m
Period
s
Dir
30/11:30pm 12.6 NNW 20 31 1009.8 - 0.4 - - - - - - -
30/11:00pm 12.8 N 20 33 1009.7 - 0.0 - - - - - - -
30/10:30pm 13.3 NNW 21 34 1009.7 - 0.0 - - - - - - -
30/10:00pm 12.9 NNW 18 28 1009.6 - 0.0 - - - - - - -
30/09:30pm 13.8 NNW 22 34 1010.0 - 0.0 - - - - - - -
30/09:00pm 14.2 NNW 21 32 1009.8 - 0.0 - - - - - - -
30/08:30pm 13.8 NNW 21 36 1009.6 - 0.0 - - - - - - -
30/08:02pm 13.7 NNW 19 29 1009.4 - 0.0 - - - - - - -
30/08:00pm 13.6 N 19 28 1009.5 - 0.0 - - - - - - -
30/07:30pm 13.5 NNW 18 29 1009.5 - 0.0 - - - - - - -
30/07:00pm 13.2 N 20 33 1009.5 - 0.0 - - - - - - -
30/06:30pm 13.2 N 23 36 1008.8 - 0.0 - - - - - - -
30/06:00pm 13.0 N 23 37 1008.8 - 0.0 - - - - - - -
30/05:30pm 13.0 N 22 37 1009.5 - 0.0 - - - - - - -
30/05:00pm 12.7 N 17 30 1010.3 - 0.0 - - - - - - -
30/04:30pm 12.6 N 17 28 1010.6 - 0.0 - - - - - - -
30/04:22pm 12.6 N 15 25 1010.3 - 0.0 - - - - - - -
30/04:00pm 12.7 NNW 15 24 1011.5 - 0.0 - - - - - - -
30/03:30pm 13.1 N 15 24 1011.6 - 0.0 - - - - - - -
30/03:04pm 13.2 N 15 25 1011.9 - 0.0 - - - - - - -
30/03:00pm 13.3 N 14 23 1012.0 - 0.0 - - - - - - -
30/02:30pm 13.4 NNW 17 27 1012.9 - 0.0 - - - - - - -
30/02:00pm 13.8 NNW 16 27 1013.1 - 0.0 - - - - - - -
30/01:30pm 14.2 NNW 18 30 1013.6 - 0.0 - - - - - - -
30/01:00pm 13.9 N 17 28 1013.8 - 0.0 - - - - - - -
30/12:55pm 13.7 N 15 26 1013.9 - 0.0 - - - - - - -
30/12:30pm 12.9 N 14 21 1015.2 - 0.0 - - - - - - -
30/12:00pm 12.7 NNW 14 21 1016.6 - 0.0 - - - - - - -
30/11:30am 12.7 NNW 10 20 1017.3 - 0.0 - - - - - - -
30/11:00am 12.2 NNW 9 13 1017.8 - 0.0 - - - - - - -
30/10:30am 11.6 NNW 9 15 1018.2 - 0.0 - - - - - - -
30/10:00am 11.4 NNW 8 12 1018.5 - 0.0 - - - - - - -
30/09:30am 11.2 NNW 7 12 1018.7 - 0.0 - - - - - - -
30/09:00am 10.5 N 10 14 1018.7 - 0.2 - - - - - - -
30/08:30am 10.3 NNW 8 13 1019.4 - 0.2 - - - - - - -
30/08:00am 9.8 NNW 6 8 1019.3 - 0.2 - - - - - - -
30/07:30am 9.7 NNW 8 10 1019.4 - 0.2 - - - - - - -
30/07:00am 9.5 NNW 6 9 1019.3 - 0.2 - - - - - - -
30/06:30am 9.6 NNW 7 9 1019.4 - 0.2 - - - - - - -
30/06:00am 9.4 N 7 9 1019.4 - 0.2 - - - - - - -
30/05:30am 9.5 N 8 12 1019.4 - 0.2 - - - - - - -
30/05:00am 9.5 N 6 8 1019.6 - 0.2 - - - - - - -
30/04:30am 9.4 N 7 9 1019.9 - 0.2 - - - - - - -
30/04:00am 9.9 N 7 9 1020.1 - 0.2 - - - - - - -
30/03:30am 9.3 N 8 9 1020.3 - 0.2 - - - - - - -
30/03:00am 9.3 N 7 9 1020.5 - 0.2 - - - - - - -
30/02:30am 9.6 N 8 10 1020.6 - 0.2 - - - - - - -
30/02:00am 9.4 N 7 9 1020.6 - 0.2 - - - - - - -
30/01:30am 9.8 NNW 7 8 1020.8 - 0.2 - - - - - - -
30/01:00am 10.5 NNW 6 8 1020.8 - 0.2 - - - - - - -
30/12:30am 11.5 W 7 9 1020.9 - 0.2 - - - - - - -
30/12:00am 11.6 W 7 10 1021.3 - 0.2 - - - - - - -
 
Date/Time
EST
Temp
°C
Wind Pressure Rain since
9am
mm
Weather Cloud Vis
km
Sea
Height
m
Swell
Dir  Spd
kts
Gust
kts
hPa Trend Height
m
Period
s
Dir
29/11:30pm 11.7 W 8 12 1021.2 - 0.2 - - - - - - -
29/11:00pm 11.7 W 9 13 1021.3 - 0.2 - - - - - - -
29/10:30pm 11.7 W 9 13 1021.2 - 0.2 - - - - - - -
29/10:00pm 11.7 WSW 10 14 1021.2 - 0.2 - - - - - - -
29/09:30pm 11.9 WSW 11 15 1021.1 - 0.2 - - - - - - -
29/09:00pm 12.2 SW 14 17 1021.0 - 0.2 - - - - - - -
29/08:30pm 12.4 WSW 12 17 1020.7 - 0.2 - - - - - - -
29/08:00pm 12.6 W 14 18 1020.3 - 0.2 - - - - - - -
29/07:30pm 12.5 W 14 20 1020.1 - 0.2 - - - - - - -
29/07:00pm 12.8 W 16 21 1020.0 - 0.2 - - - - - - -
29/06:30pm 12.7 W 15 20 1019.6 - 0.2 - - - - - - -
29/06:00pm 12.6 W 16 25 1019.3 - 0.2 - - - - - - -
29/05:30pm 12.7 W 16 23 1018.9 - 0.2 - - - - - - -
29/05:00pm 12.6 W 15 20 1018.7 - 0.2 - - - - - - -
29/04:30pm 12.8 W 18 24 1018.5 - 0.2 - - - - - - -
29/04:00pm 12.9 W 15 23 1018.4 - 0.2 - - - - - - -
29/03:30pm 12.8 W 15 23 1018.5 - 0.2 - - - - - - -
29/03:00pm 12.8 W 18 25 1018.3 - 0.2 - - - - - - -
29/02:30pm 13.1 W 18 26 1018.1 - 0.2 - - - - - - -
29/02:14pm 13.2 W 18 28 1018.0 - 0.2 - - - - - - -
29/02:00pm 13.3 W 19 25 1018.1 - 0.2 - - - - - - -
29/01:30pm 12.7 W 19 26 1018.0 - 0.2 - - - - - - -
29/01:00pm 12.4 W 16 22 1018.4 - 0.2 - - - - - - -
29/12:30pm 12.6 W 16 23 1018.5 - 0.2 - - - - - - -
29/12:00pm 12.9 W 18 25 1018.6 - 0.2 - - - - - - -
29/11:30am 12.9 W 18 24 1018.9 - 0.2 - - - - - - -
29/11:16am 12.9 W 19 29 1018.9 - 0.2 - - - - - - -
29/11:00am 12.7 W 19 27 1018.8 - 0.2 - - - - - - -
29/10:30am 12.4 W 21 29 1018.7 - 0.2 - - - - - - -
29/10:00am 12.3 W 18 28 1018.5 - 0.0 - - - - - - -
29/09:39am 11.8 W 18 29 1018.3 - 0.0 - - - - - - -
29/09:30am 12.3 WNW 17 24 1018.4 - 0.0 - - - - - - -
29/09:00am 12.0 WNW 16 22 1018.6 - 10.2 - - - - - - -
29/08:30am 11.7 W 21 34 1018.5 - 10.0 - - - - - - -
29/08:22am 11.3 W 20 34 1018.1 - 9.6 - - - - - - -
29/08:08am 11.5 WNW 18 28 1018.3 - 7.6 - - - - - - -
29/08:00am 11.4 WNW 21 28 1018.1 - 7.4 - - - - - - -
29/07:40am 11.7 WNW 16 26 1018.0 - 7.2 - - - - - - -
29/07:30am 11.4 WNW 17 25 1018.0 - 7.2 - - - - - - -
29/07:00am 11.4 WNW 19 26 1017.8 - 5.6 - - - - - - -
29/06:30am 11.2 WNW 18 29 1017.8 - 5.0 - - - - - - -
29/06:28am 11.2 WNW 17 27 1017.7 - 4.8 - - - - - - -
29/06:00am 11.3 WNW 17 23 1017.6 - 4.2 - - - - - - -
29/05:30am 11.2 WNW 20 30 1017.5 - 4.0 - - - - - - -
29/05:15am 11.4 WNW 18 28 1017.3 - 3.6 - - - - - - -
29/05:00am 11.2 NW 17 25 1017.2 - 3.4 - - - - - - -
29/04:30am 11.2 NW 17 28 1017.3 - 3.4 - - - - - - -
29/04:00am 11.2 NW 18 28 1017.4 - 3.4 - - - - - - -
29/03:49am 11.2 WNW 17 27 1017.5 - 3.2 - - - - - - -
29/03:30am 11.1 WNW 17 25 1017.7 - 3.2 - - - - - - -
29/03:00am 11.0 NW 17 27 1018.0 - 3.0 - - - - - - -
29/02:41am 11.0 WNW 15 27 1018.1 - 3.0 - - - - - - -
29/02:30am 11.0 WNW 16 24 1018.1 - 3.0 - - - - - - -
29/02:14am 11.1 WNW 17 27 1018.3 - 3.0 - - - - - - -
29/02:00am 11.3 WNW 19 27 1018.3 - 2.6 - - - - - - -
29/01:30am 11.4 WNW 17 27 1018.4 - 2.4 - - - - - - -
29/01:02am 11.4 NW 17 27 1018.3 - 2.4 - - - - - - -
29/01:00am 11.4 NW 18 27 1018.3 - 2.4 - - - - - - -
29/12:40am 11.3 NW 18 28 1018.5 - 2.4 - - - - - - -
29/12:30am 11.2 NW 19 26 1018.6 - 2.4 - - - - - - -
29/12:04am 11.1 NW 17 27 1018.9 - 2.4 - - - - - - -
29/12:00am 11.1 NW 18 27 1019.1 - 2.4 - - - - - - -
 
Date/Time
EST
Temp
°C
Wind Pressure Rain since
9am
mm
Weather Cloud Vis
km
Sea
Height
m
Swell
Dir  Spd
kts
Gust
kts
hPa Trend Height
m
Period
s
Dir
28/11:30pm 11.1 NW 18 27 1019.2 - 2.4 - - - - - - -
28/11:08pm 11.0 WNW 17 29 1019.3 - 2.4 - - - - - - -
28/11:00pm 11.1 WNW 17 26 1019.5 - 2.4 - - - - - - -
28/10:56pm 11.1 WNW 16 26 1019.5 - 2.4 - - - - - - -
28/10:30pm 11.3 WNW 17 26 1019.7 - 2.4 - - - - - - -
28/10:10pm 11.4 WNW 17 27 1019.8 - 2.4 - - - - - - -
28/10:00pm 11.5 WNW 17 26 1019.8 - 2.4 - - - - - - -
28/09:30pm 11.3 WNW 18 30 1019.8 - 2.4 - - - - - - -
28/09:00pm 11.2 WNW 17 32 1020.1 - 2.4 - - - - - - -
28/08:30pm 11.3 WNW 18 28 1020.1 - 2.4 - - - - - - -
28/08:05pm 11.5 WNW 17 27 1020.3 - 2.2 - - - - - - -
28/08:00pm 11.5 WNW 17 25 1020.2 - 2.2 - - - - - - -

Other Formats:

Comma delimited format used in spreadsheet applications
http://www.bom.gov.au/fwo/IDT60701/IDT60701.94842.axf

JavaScript Object Notation format (JSON) in row-major order
http://www.bom.gov.au/fwo/IDT60701/IDT60701.94842.json